<?xml version="1.0" encoding="UTF-8" standalone="no" ?>
<gpx xmlns="http://www.topografix.com/GPX/1/1" xmlns:xsi="http://www.w3.org/2001/XMLSchema-instance" xsi:schemaLocation="http://www.topografix.com/GPX/1/1 http://www.topografix.com/GPX/1/1/gpx.xsd" version="1.1" creator="VisuGPX - https://www.visugpx.com">
  <metadata>
    <name>Cressely Chateaufort</name>
    <desc><![CDATA[Départ Parking rue Jean Moulin à gauche 200 mètres après le rond point]]></desc>
  </metadata>
  <trk>
    <name><![CDATA[20180411225637-YZBWb]]></name>
    <trkseg>
      <trkpt lat="48.72023" lon="2.09069">
        <ele>160</ele>
        <time>2018-04-11T06:26:14Z</time>
      </trkpt>
      <trkpt lat="48.72082" lon="2.09052">
        <ele>161</ele>
        <time>2018-04-11T06:28:16Z</time>
      </trkpt>
      <trkpt lat="48.72099" lon="2.09058">
        <ele>162</ele>
        <time>2018-04-11T06:28:31Z</time>
      </trkpt>
      <trkpt lat="48.72117" lon="2.0907">
        <ele>162</ele>
        <time>2018-04-11T06:28:47Z</time>
      </trkpt>
      <trkpt lat="48.7213" lon="2.09085">
        <ele>162</ele>
        <time>2018-04-11T06:29:02Z</time>
      </trkpt>
      <trkpt lat="48.72143" lon="2.09104">
        <ele>162</ele>
        <time>2018-04-11T06:29:18Z</time>
      </trkpt>
      <trkpt lat="48.72157" lon="2.0912">
        <ele>162</ele>
        <time>2018-04-11T06:29:34Z</time>
      </trkpt>
      <trkpt lat="48.72172" lon="2.09136">
        <ele>163</ele>
        <time>2018-04-11T06:29:50Z</time>
      </trkpt>
      <trkpt lat="48.72188" lon="2.09146">
        <ele>163</ele>
        <time>2018-04-11T06:30:06Z</time>
      </trkpt>
      <trkpt lat="48.72208" lon="2.09119">
        <ele>163</ele>
        <time>2018-04-11T06:30:26Z</time>
      </trkpt>
      <trkpt lat="48.72217" lon="2.09104">
        <ele>163</ele>
        <time>2018-04-11T06:30:42Z</time>
      </trkpt>
      <trkpt lat="48.72231" lon="2.09089">
        <ele>164</ele>
        <time>2018-04-11T06:30:57Z</time>
      </trkpt>
      <trkpt lat="48.72244" lon="2.09076">
        <ele>164</ele>
        <time>2018-04-11T06:31:13Z</time>
      </trkpt>
      <trkpt lat="48.72257" lon="2.09077">
        <ele>164</ele>
        <time>2018-04-11T06:31:28Z</time>
      </trkpt>
      <trkpt lat="48.72274" lon="2.09091">
        <ele>163</ele>
        <time>2018-04-11T06:31:44Z</time>
      </trkpt>
      <trkpt lat="48.72286" lon="2.09104">
        <ele>163</ele>
        <time>2018-04-11T06:31:59Z</time>
      </trkpt>
      <trkpt lat="48.72302" lon="2.09118">
        <ele>163</ele>
        <time>2018-04-11T06:32:15Z</time>
      </trkpt>
      <trkpt lat="48.72315" lon="2.09131">
        <ele>163</ele>
        <time>2018-04-11T06:32:30Z</time>
      </trkpt>
      <trkpt lat="48.72327" lon="2.09147">
        <ele>162</ele>
        <time>2018-04-11T06:32:46Z</time>
      </trkpt>
      <trkpt lat="48.72341" lon="2.09163">
        <ele>162</ele>
        <time>2018-04-11T06:33:02Z</time>
      </trkpt>
      <trkpt lat="48.72357" lon="2.09186">
        <ele>161</ele>
        <time>2018-04-11T06:33:19Z</time>
      </trkpt>
      <trkpt lat="48.72362" lon="2.09192">
        <ele>161</ele>
        <time>2018-04-11T06:33:34Z</time>
      </trkpt>
      <trkpt lat="48.72374" lon="2.09186">
        <ele>161</ele>
        <time>2018-04-11T06:33:50Z</time>
      </trkpt>
      <trkpt lat="48.72387" lon="2.09182">
        <ele>161</ele>
        <time>2018-04-11T06:34:05Z</time>
      </trkpt>
      <trkpt lat="48.72398" lon="2.09175">
        <ele>161</ele>
        <time>2018-04-11T06:34:20Z</time>
      </trkpt>
      <trkpt lat="48.72419" lon="2.09169">
        <ele>160</ele>
        <time>2018-04-11T06:34:36Z</time>
      </trkpt>
      <trkpt lat="48.72432" lon="2.09156">
        <ele>161</ele>
        <time>2018-04-11T06:34:52Z</time>
      </trkpt>
      <trkpt lat="48.72444" lon="2.0915">
        <ele>161</ele>
        <time>2018-04-11T06:35:07Z</time>
      </trkpt>
      <trkpt lat="48.72457" lon="2.09141">
        <ele>161</ele>
        <time>2018-04-11T06:35:23Z</time>
      </trkpt>
      <trkpt lat="48.72471" lon="2.09134">
        <ele>161</ele>
        <time>2018-04-11T06:35:38Z</time>
      </trkpt>
      <trkpt lat="48.72486" lon="2.09126">
        <ele>161</ele>
        <time>2018-04-11T06:35:53Z</time>
      </trkpt>
      <trkpt lat="48.72504" lon="2.09118">
        <ele>161</ele>
        <time>2018-04-11T06:36:08Z</time>
      </trkpt>
      <trkpt lat="48.7252" lon="2.09112">
        <ele>161</ele>
        <time>2018-04-11T06:36:24Z</time>
      </trkpt>
      <trkpt lat="48.72535" lon="2.09123">
        <ele>161</ele>
        <time>2018-04-11T06:36:39Z</time>
      </trkpt>
      <trkpt lat="48.72549" lon="2.09144">
        <ele>161</ele>
        <time>2018-04-11T06:36:54Z</time>
      </trkpt>
      <trkpt lat="48.72559" lon="2.09167">
        <ele>161</ele>
        <time>2018-04-11T06:37:09Z</time>
      </trkpt>
      <trkpt lat="48.7257" lon="2.09192">
        <ele>160</ele>
        <time>2018-04-11T06:37:25Z</time>
      </trkpt>
      <trkpt lat="48.72582" lon="2.09216">
        <ele>160</ele>
        <time>2018-04-11T06:37:41Z</time>
      </trkpt>
      <trkpt lat="48.72592" lon="2.09239">
        <ele>160</ele>
        <time>2018-04-11T06:37:57Z</time>
      </trkpt>
      <trkpt lat="48.72606" lon="2.09259">
        <ele>159</ele>
        <time>2018-04-11T06:38:13Z</time>
      </trkpt>
      <trkpt lat="48.72622" lon="2.09272">
        <ele>159</ele>
        <time>2018-04-11T06:38:28Z</time>
      </trkpt>
      <trkpt lat="48.72634" lon="2.09288">
        <ele>159</ele>
        <time>2018-04-11T06:38:44Z</time>
      </trkpt>
      <trkpt lat="48.72651" lon="2.09303">
        <ele>158</ele>
        <time>2018-04-11T06:38:59Z</time>
      </trkpt>
      <trkpt lat="48.72666" lon="2.09317">
        <ele>158</ele>
        <time>2018-04-11T06:39:14Z</time>
      </trkpt>
      <trkpt lat="48.72683" lon="2.0933">
        <ele>156</ele>
        <time>2018-04-11T06:39:29Z</time>
      </trkpt>
      <trkpt lat="48.72695" lon="2.09341">
        <ele>153</ele>
        <time>2018-04-11T06:39:44Z</time>
      </trkpt>
      <trkpt lat="48.72707" lon="2.09351">
        <ele>152</ele>
        <time>2018-04-11T06:39:59Z</time>
      </trkpt>
      <trkpt lat="48.72716" lon="2.09349">
        <ele>151</ele>
        <time>2018-04-11T06:40:14Z</time>
      </trkpt>
      <trkpt lat="48.7273" lon="2.09347">
        <ele>150</ele>
        <time>2018-04-11T06:40:30Z</time>
      </trkpt>
      <trkpt lat="48.72744" lon="2.09346">
        <ele>150</ele>
        <time>2018-04-11T06:40:46Z</time>
      </trkpt>
      <trkpt lat="48.72757" lon="2.09341">
        <ele>146</ele>
        <time>2018-04-11T06:41:01Z</time>
      </trkpt>
      <trkpt lat="48.72769" lon="2.09331">
        <ele>147</ele>
        <time>2018-04-11T06:41:17Z</time>
      </trkpt>
      <trkpt lat="48.72779" lon="2.09323">
        <ele>146</ele>
        <time>2018-04-11T06:41:32Z</time>
      </trkpt>
      <trkpt lat="48.7279" lon="2.09313">
        <ele>145</ele>
        <time>2018-04-11T06:41:47Z</time>
      </trkpt>
      <trkpt lat="48.72802" lon="2.093">
        <ele>144</ele>
        <time>2018-04-11T06:42:02Z</time>
      </trkpt>
      <trkpt lat="48.72815" lon="2.09285">
        <ele>144</ele>
        <time>2018-04-11T06:42:17Z</time>
      </trkpt>
      <trkpt lat="48.72828" lon="2.09272">
        <ele>143</ele>
        <time>2018-04-11T06:42:32Z</time>
      </trkpt>
      <trkpt lat="48.72839" lon="2.09255">
        <ele>140</ele>
        <time>2018-04-11T06:42:47Z</time>
      </trkpt>
      <trkpt lat="48.7285" lon="2.09242">
        <ele>140</ele>
        <time>2018-04-11T06:43:02Z</time>
      </trkpt>
      <trkpt lat="48.72851" lon="2.09205">
        <ele>140</ele>
        <time>2018-04-11T06:43:18Z</time>
      </trkpt>
      <trkpt lat="48.72863" lon="2.09197">
        <ele>139</ele>
        <time>2018-04-11T06:43:34Z</time>
      </trkpt>
      <trkpt lat="48.72876" lon="2.09201">
        <ele>138</ele>
        <time>2018-04-11T06:43:50Z</time>
      </trkpt>
      <trkpt lat="48.7289" lon="2.09204">
        <ele>137</ele>
        <time>2018-04-11T06:44:05Z</time>
      </trkpt>
      <trkpt lat="48.72909" lon="2.092">
        <ele>135</ele>
        <time>2018-04-11T06:44:22Z</time>
      </trkpt>
      <trkpt lat="48.72923" lon="2.09199">
        <ele>125</ele>
        <time>2018-04-11T06:44:37Z</time>
      </trkpt>
      <trkpt lat="48.72933" lon="2.09199">
        <ele>125</ele>
        <time>2018-04-11T06:44:52Z</time>
      </trkpt>
      <trkpt lat="48.72948" lon="2.092">
        <ele>123</ele>
        <time>2018-04-11T06:45:07Z</time>
      </trkpt>
      <trkpt lat="48.72968" lon="2.09206">
        <ele>121</ele>
        <time>2018-04-11T06:45:23Z</time>
      </trkpt>
      <trkpt lat="48.72983" lon="2.09212">
        <ele>120</ele>
        <time>2018-04-11T06:45:39Z</time>
      </trkpt>
      <trkpt lat="48.73" lon="2.09217">
        <ele>119</ele>
        <time>2018-04-11T06:45:54Z</time>
      </trkpt>
      <trkpt lat="48.73014" lon="2.09221">
        <ele>111</ele>
        <time>2018-04-11T06:46:09Z</time>
      </trkpt>
      <trkpt lat="48.73033" lon="2.09226">
        <ele>110</ele>
        <time>2018-04-11T06:46:24Z</time>
      </trkpt>
      <trkpt lat="48.73049" lon="2.0923">
        <ele>110</ele>
        <time>2018-04-11T06:46:40Z</time>
      </trkpt>
      <trkpt lat="48.73061" lon="2.09219">
        <ele>109</ele>
        <time>2018-04-11T06:46:56Z</time>
      </trkpt>
      <trkpt lat="48.73076" lon="2.09209">
        <ele>108</ele>
        <time>2018-04-11T06:47:12Z</time>
      </trkpt>
      <trkpt lat="48.7309" lon="2.09199">
        <ele>104</ele>
        <time>2018-04-11T06:47:28Z</time>
      </trkpt>
      <trkpt lat="48.73105" lon="2.09189">
        <ele>104</ele>
        <time>2018-04-11T06:47:43Z</time>
      </trkpt>
      <trkpt lat="48.73122" lon="2.0918">
        <ele>104</ele>
        <time>2018-04-11T06:47:59Z</time>
      </trkpt>
      <trkpt lat="48.73139" lon="2.09179">
        <ele>104</ele>
        <time>2018-04-11T06:48:14Z</time>
      </trkpt>
      <trkpt lat="48.7315" lon="2.09168">
        <ele>103</ele>
        <time>2018-04-11T06:48:29Z</time>
      </trkpt>
      <trkpt lat="48.73149" lon="2.09139">
        <ele>103</ele>
        <time>2018-04-11T06:48:45Z</time>
      </trkpt>
      <trkpt lat="48.7315" lon="2.09117">
        <ele>103</ele>
        <time>2018-04-11T06:49:00Z</time>
      </trkpt>
      <trkpt lat="48.73161" lon="2.09106">
        <ele>103</ele>
        <time>2018-04-11T06:49:16Z</time>
      </trkpt>
      <trkpt lat="48.73177" lon="2.09111">
        <ele>103</ele>
        <time>2018-04-11T06:49:31Z</time>
      </trkpt>
      <trkpt lat="48.73193" lon="2.09114">
        <ele>104</ele>
        <time>2018-04-11T06:49:46Z</time>
      </trkpt>
      <trkpt lat="48.73211" lon="2.09121">
        <ele>104</ele>
        <time>2018-04-11T06:50:02Z</time>
      </trkpt>
      <trkpt lat="48.73227" lon="2.09126">
        <ele>104</ele>
        <time>2018-04-11T06:50:17Z</time>
      </trkpt>
      <trkpt lat="48.73246" lon="2.09132">
        <ele>104</ele>
        <time>2018-04-11T06:50:32Z</time>
      </trkpt>
      <trkpt lat="48.73263" lon="2.09139">
        <ele>108</ele>
        <time>2018-04-11T06:50:47Z</time>
      </trkpt>
      <trkpt lat="48.73278" lon="2.09123">
        <ele>109</ele>
        <time>2018-04-11T06:51:03Z</time>
      </trkpt>
      <trkpt lat="48.73286" lon="2.09098">
        <ele>109</ele>
        <time>2018-04-11T06:51:18Z</time>
      </trkpt>
      <trkpt lat="48.73296" lon="2.09077">
        <ele>109</ele>
        <time>2018-04-11T06:51:33Z</time>
      </trkpt>
      <trkpt lat="48.73303" lon="2.09052">
        <ele>109</ele>
        <time>2018-04-11T06:51:49Z</time>
      </trkpt>
      <trkpt lat="48.73309" lon="2.09024">
        <ele>109</ele>
        <time>2018-04-11T06:52:04Z</time>
      </trkpt>
      <trkpt lat="48.73318" lon="2.09002">
        <ele>110</ele>
        <time>2018-04-11T06:52:19Z</time>
      </trkpt>
      <trkpt lat="48.73328" lon="2.08988">
        <ele>109</ele>
        <time>2018-04-11T06:52:34Z</time>
      </trkpt>
      <trkpt lat="48.7334" lon="2.08971">
        <ele>115</ele>
        <time>2018-04-11T06:52:49Z</time>
      </trkpt>
      <trkpt lat="48.73353" lon="2.08962">
        <ele>116</ele>
        <time>2018-04-11T06:53:05Z</time>
      </trkpt>
      <trkpt lat="48.73366" lon="2.08949">
        <ele>116</ele>
        <time>2018-04-11T06:53:20Z</time>
      </trkpt>
      <trkpt lat="48.73379" lon="2.08937">
        <ele>117</ele>
        <time>2018-04-11T06:53:35Z</time>
      </trkpt>
      <trkpt lat="48.73392" lon="2.08926">
        <ele>118</ele>
        <time>2018-04-11T06:53:50Z</time>
      </trkpt>
      <trkpt lat="48.73409" lon="2.08918">
        <ele>119</ele>
        <time>2018-04-11T06:54:06Z</time>
      </trkpt>
      <trkpt lat="48.73423" lon="2.08919">
        <ele>123</ele>
        <time>2018-04-11T06:54:22Z</time>
      </trkpt>
      <trkpt lat="48.73438" lon="2.08922">
        <ele>126</ele>
        <time>2018-04-11T06:54:37Z</time>
      </trkpt>
      <trkpt lat="48.73452" lon="2.08923">
        <ele>128</ele>
        <time>2018-04-11T06:54:53Z</time>
      </trkpt>
      <trkpt lat="48.73465" lon="2.08925">
        <ele>130</ele>
        <time>2018-04-11T06:55:09Z</time>
      </trkpt>
      <trkpt lat="48.7348" lon="2.08927">
        <ele>130</ele>
        <time>2018-04-11T06:55:25Z</time>
      </trkpt>
      <trkpt lat="48.73493" lon="2.08928">
        <ele>130</ele>
        <time>2018-04-11T06:55:41Z</time>
      </trkpt>
      <trkpt lat="48.73507" lon="2.08929">
        <ele>135</ele>
        <time>2018-04-11T06:55:57Z</time>
      </trkpt>
      <trkpt lat="48.73516" lon="2.0893">
        <ele>137</ele>
        <time>2018-04-11T06:56:13Z</time>
      </trkpt>
      <trkpt lat="48.73528" lon="2.08931">
        <ele>139</ele>
        <time>2018-04-11T06:56:31Z</time>
      </trkpt>
      <trkpt lat="48.73548" lon="2.08927">
        <ele>142</ele>
        <time>2018-04-11T06:56:46Z</time>
      </trkpt>
      <trkpt lat="48.73579" lon="2.08924">
        <ele>144</ele>
        <time>2018-04-11T06:57:01Z</time>
      </trkpt>
      <trkpt lat="48.73588" lon="2.08924">
        <ele>146</ele>
        <time>2018-04-11T06:57:16Z</time>
      </trkpt>
      <trkpt lat="48.73597" lon="2.08926">
        <ele>148</ele>
        <time>2018-04-11T06:57:33Z</time>
      </trkpt>
      <trkpt lat="48.73613" lon="2.08924">
        <ele>149</ele>
        <time>2018-04-11T06:57:49Z</time>
      </trkpt>
      <trkpt lat="48.73623" lon="2.08931">
        <ele>150</ele>
        <time>2018-04-11T06:58:04Z</time>
      </trkpt>
      <trkpt lat="48.73631" lon="2.08948">
        <ele>151</ele>
        <time>2018-04-11T06:58:20Z</time>
      </trkpt>
      <trkpt lat="48.73651" lon="2.08945">
        <ele>152</ele>
        <time>2018-04-11T06:58:35Z</time>
      </trkpt>
      <trkpt lat="48.73663" lon="2.08931">
        <ele>152</ele>
        <time>2018-04-11T06:58:51Z</time>
      </trkpt>
      <trkpt lat="48.73676" lon="2.08929">
        <ele>154</ele>
        <time>2018-04-11T06:59:07Z</time>
      </trkpt>
      <trkpt lat="48.73688" lon="2.08948">
        <ele>154</ele>
        <time>2018-04-11T06:59:23Z</time>
      </trkpt>
      <trkpt lat="48.73694" lon="2.08966">
        <ele>154</ele>
        <time>2018-04-11T06:59:39Z</time>
      </trkpt>
      <trkpt lat="48.737" lon="2.08987">
        <ele>155</ele>
        <time>2018-04-11T06:59:55Z</time>
      </trkpt>
      <trkpt lat="48.73704" lon="2.0901">
        <ele>155</ele>
        <time>2018-04-11T07:00:11Z</time>
      </trkpt>
      <trkpt lat="48.73702" lon="2.09034">
        <ele>155</ele>
        <time>2018-04-11T07:00:27Z</time>
      </trkpt>
      <trkpt lat="48.73696" lon="2.0906">
        <ele>155</ele>
        <time>2018-04-11T07:00:44Z</time>
      </trkpt>
      <trkpt lat="48.7369" lon="2.09083">
        <ele>155</ele>
        <time>2018-04-11T07:00:59Z</time>
      </trkpt>
      <trkpt lat="48.73687" lon="2.09108">
        <ele>154</ele>
        <time>2018-04-11T07:01:15Z</time>
      </trkpt>
      <trkpt lat="48.73677" lon="2.09131">
        <ele>154</ele>
        <time>2018-04-11T07:01:32Z</time>
      </trkpt>
      <trkpt lat="48.73677" lon="2.09156">
        <ele>153</ele>
        <time>2018-04-11T07:01:48Z</time>
      </trkpt>
      <trkpt lat="48.73688" lon="2.09171">
        <ele>153</ele>
        <time>2018-04-11T07:02:03Z</time>
      </trkpt>
      <trkpt lat="48.73684" lon="2.09194">
        <ele>153</ele>
        <time>2018-04-11T07:02:22Z</time>
      </trkpt>
      <trkpt lat="48.73676" lon="2.09188">
        <ele>153</ele>
        <time>2018-04-11T07:02:38Z</time>
      </trkpt>
      <trkpt lat="48.73663" lon="2.09178">
        <ele>151</ele>
        <time>2018-04-11T07:02:53Z</time>
      </trkpt>
      <trkpt lat="48.7365" lon="2.09163">
        <ele>151</ele>
        <time>2018-04-11T07:03:09Z</time>
      </trkpt>
      <trkpt lat="48.7364" lon="2.0914">
        <ele>151</ele>
        <time>2018-04-11T07:03:26Z</time>
      </trkpt>
      <trkpt lat="48.73628" lon="2.09126">
        <ele>151</ele>
        <time>2018-04-11T07:03:42Z</time>
      </trkpt>
      <trkpt lat="48.73619" lon="2.09113">
        <ele>151</ele>
        <time>2018-04-11T07:03:58Z</time>
      </trkpt>
      <trkpt lat="48.73606" lon="2.09116">
        <ele>151</ele>
        <time>2018-04-11T07:04:14Z</time>
      </trkpt>
      <trkpt lat="48.73594" lon="2.09114">
        <ele>151</ele>
        <time>2018-04-11T07:04:29Z</time>
      </trkpt>
      <trkpt lat="48.73579" lon="2.09111">
        <ele>148</ele>
        <time>2018-04-11T07:04:44Z</time>
      </trkpt>
      <trkpt lat="48.73563" lon="2.09108">
        <ele>148</ele>
        <time>2018-04-11T07:04:59Z</time>
      </trkpt>
      <trkpt lat="48.73547" lon="2.09101">
        <ele>148</ele>
        <time>2018-04-11T07:05:14Z</time>
      </trkpt>
      <trkpt lat="48.7353" lon="2.09093">
        <ele>148</ele>
        <time>2018-04-11T07:05:29Z</time>
      </trkpt>
      <trkpt lat="48.73515" lon="2.09078">
        <ele>152</ele>
        <time>2018-04-11T07:05:44Z</time>
      </trkpt>
      <trkpt lat="48.73501" lon="2.09067">
        <ele>151</ele>
        <time>2018-04-11T07:05:59Z</time>
      </trkpt>
      <trkpt lat="48.73486" lon="2.09061">
        <ele>146</ele>
        <time>2018-04-11T07:06:15Z</time>
      </trkpt>
      <trkpt lat="48.73472" lon="2.09058">
        <ele>144</ele>
        <time>2018-04-11T07:06:30Z</time>
      </trkpt>
      <trkpt lat="48.73458" lon="2.09061">
        <ele>143</ele>
        <time>2018-04-11T07:06:45Z</time>
      </trkpt>
      <trkpt lat="48.73446" lon="2.09053">
        <ele>141</ele>
        <time>2018-04-11T07:07:01Z</time>
      </trkpt>
      <trkpt lat="48.73415" lon="2.09044">
        <ele>128</ele>
        <time>2018-04-11T07:07:17Z</time>
      </trkpt>
      <trkpt lat="48.73409" lon="2.09061">
        <ele>130</ele>
        <time>2018-04-11T07:07:33Z</time>
      </trkpt>
      <trkpt lat="48.73402" lon="2.09075">
        <ele>131</ele>
        <time>2018-04-11T07:07:49Z</time>
      </trkpt>
      <trkpt lat="48.73388" lon="2.09076">
        <ele>127</ele>
        <time>2018-04-11T07:08:05Z</time>
      </trkpt>
      <trkpt lat="48.73375" lon="2.09076">
        <ele>125</ele>
        <time>2018-04-11T07:08:20Z</time>
      </trkpt>
      <trkpt lat="48.73367" lon="2.09085">
        <ele>123</ele>
        <time>2018-04-11T07:08:36Z</time>
      </trkpt>
      <trkpt lat="48.73365" lon="2.09106">
        <ele>123</ele>
        <time>2018-04-11T07:08:52Z</time>
      </trkpt>
      <trkpt lat="48.73358" lon="2.09128">
        <ele>122</ele>
        <time>2018-04-11T07:09:08Z</time>
      </trkpt>
      <trkpt lat="48.7335" lon="2.09149">
        <ele>120</ele>
        <time>2018-04-11T07:09:24Z</time>
      </trkpt>
      <trkpt lat="48.73347" lon="2.09172">
        <ele>116</ele>
        <time>2018-04-11T07:09:40Z</time>
      </trkpt>
      <trkpt lat="48.73352" lon="2.09193">
        <ele>117</ele>
        <time>2018-04-11T07:09:56Z</time>
      </trkpt>
      <trkpt lat="48.73354" lon="2.09215">
        <ele>116</ele>
        <time>2018-04-11T07:10:11Z</time>
      </trkpt>
      <trkpt lat="48.73348" lon="2.09237">
        <ele>114</ele>
        <time>2018-04-11T07:10:26Z</time>
      </trkpt>
      <trkpt lat="48.73349" lon="2.09267">
        <ele>113</ele>
        <time>2018-04-11T07:10:41Z</time>
      </trkpt>
      <trkpt lat="48.73336" lon="2.09288">
        <ele>114</ele>
        <time>2018-04-11T07:10:58Z</time>
      </trkpt>
      <trkpt lat="48.73329" lon="2.09283">
        <ele>110</ele>
        <time>2018-04-11T07:11:13Z</time>
      </trkpt>
      <trkpt lat="48.7332" lon="2.09286">
        <ele>109</ele>
        <time>2018-04-11T07:11:28Z</time>
      </trkpt>
      <trkpt lat="48.73309" lon="2.093">
        <ele>109</ele>
        <time>2018-04-11T07:11:44Z</time>
      </trkpt>
      <trkpt lat="48.73294" lon="2.09309">
        <ele>109</ele>
        <time>2018-04-11T07:12:00Z</time>
      </trkpt>
      <trkpt lat="48.7328" lon="2.09315">
        <ele>109</ele>
        <time>2018-04-11T07:12:15Z</time>
      </trkpt>
      <trkpt lat="48.73263" lon="2.0932">
        <ele>108</ele>
        <time>2018-04-11T07:12:31Z</time>
      </trkpt>
      <trkpt lat="48.73248" lon="2.09323">
        <ele>106</ele>
        <time>2018-04-11T07:12:47Z</time>
      </trkpt>
      <trkpt lat="48.73238" lon="2.09342">
        <ele>107</ele>
        <time>2018-04-11T07:13:02Z</time>
      </trkpt>
      <trkpt lat="48.73234" lon="2.09367">
        <ele>107</ele>
        <time>2018-04-11T07:13:17Z</time>
      </trkpt>
      <trkpt lat="48.7323" lon="2.0939">
        <ele>108</ele>
        <time>2018-04-11T07:13:32Z</time>
      </trkpt>
      <trkpt lat="48.73223" lon="2.09414">
        <ele>108</ele>
        <time>2018-04-11T07:13:47Z</time>
      </trkpt>
      <trkpt lat="48.73217" lon="2.09436">
        <ele>108</ele>
        <time>2018-04-11T07:14:02Z</time>
      </trkpt>
      <trkpt lat="48.7321" lon="2.0946">
        <ele>107</ele>
        <time>2018-04-11T07:14:18Z</time>
      </trkpt>
      <trkpt lat="48.73209" lon="2.09483">
        <ele>107</ele>
        <time>2018-04-11T07:14:33Z</time>
      </trkpt>
      <trkpt lat="48.73218" lon="2.09502">
        <ele>108</ele>
        <time>2018-04-11T07:14:48Z</time>
      </trkpt>
      <trkpt lat="48.7323" lon="2.09521">
        <ele>109</ele>
        <time>2018-04-11T07:15:03Z</time>
      </trkpt>
      <trkpt lat="48.73231" lon="2.09545">
        <ele>109</ele>
        <time>2018-04-11T07:15:19Z</time>
      </trkpt>
      <trkpt lat="48.73221" lon="2.09567">
        <ele>109</ele>
        <time>2018-04-11T07:15:35Z</time>
      </trkpt>
      <trkpt lat="48.73214" lon="2.0959">
        <ele>111</ele>
        <time>2018-04-11T07:15:50Z</time>
      </trkpt>
      <trkpt lat="48.73201" lon="2.09609">
        <ele>111</ele>
        <time>2018-04-11T07:16:05Z</time>
      </trkpt>
      <trkpt lat="48.73187" lon="2.09628">
        <ele>111</ele>
        <time>2018-04-11T07:16:21Z</time>
      </trkpt>
      <trkpt lat="48.73177" lon="2.09648">
        <ele>111</ele>
        <time>2018-04-11T07:16:37Z</time>
      </trkpt>
      <trkpt lat="48.73171" lon="2.0967">
        <ele>111</ele>
        <time>2018-04-11T07:16:52Z</time>
      </trkpt>
      <trkpt lat="48.73165" lon="2.09694">
        <ele>107</ele>
        <time>2018-04-11T07:17:07Z</time>
      </trkpt>
      <trkpt lat="48.73159" lon="2.09719">
        <ele>107</ele>
        <time>2018-04-11T07:17:23Z</time>
      </trkpt>
      <trkpt lat="48.73158" lon="2.09745">
        <ele>109</ele>
        <time>2018-04-11T07:17:39Z</time>
      </trkpt>
      <trkpt lat="48.73158" lon="2.09769">
        <ele>109</ele>
        <time>2018-04-11T07:17:54Z</time>
      </trkpt>
      <trkpt lat="48.73158" lon="2.09792">
        <ele>109</ele>
        <time>2018-04-11T07:18:09Z</time>
      </trkpt>
      <trkpt lat="48.73153" lon="2.09815">
        <ele>110</ele>
        <time>2018-04-11T07:18:24Z</time>
      </trkpt>
      <trkpt lat="48.73144" lon="2.09836">
        <ele>112</ele>
        <time>2018-04-11T07:18:39Z</time>
      </trkpt>
      <trkpt lat="48.73135" lon="2.09859">
        <ele>112</ele>
        <time>2018-04-11T07:18:55Z</time>
      </trkpt>
      <trkpt lat="48.73127" lon="2.0988">
        <ele>112</ele>
        <time>2018-04-11T07:19:10Z</time>
      </trkpt>
      <trkpt lat="48.73117" lon="2.09903">
        <ele>112</ele>
        <time>2018-04-11T07:19:25Z</time>
      </trkpt>
      <trkpt lat="48.73108" lon="2.09924">
        <ele>115</ele>
        <time>2018-04-11T07:19:40Z</time>
      </trkpt>
      <trkpt lat="48.73095" lon="2.09942">
        <ele>115</ele>
        <time>2018-04-11T07:19:56Z</time>
      </trkpt>
      <trkpt lat="48.73084" lon="2.09958">
        <ele>115</ele>
        <time>2018-04-11T07:20:12Z</time>
      </trkpt>
      <trkpt lat="48.73071" lon="2.09976">
        <ele>107</ele>
        <time>2018-04-11T07:20:27Z</time>
      </trkpt>
      <trkpt lat="48.7306" lon="2.09997">
        <ele>107</ele>
        <time>2018-04-11T07:20:42Z</time>
      </trkpt>
      <trkpt lat="48.7305" lon="2.10018">
        <ele>110</ele>
        <time>2018-04-11T07:20:57Z</time>
      </trkpt>
      <trkpt lat="48.73037" lon="2.10039">
        <ele>110</ele>
        <time>2018-04-11T07:21:13Z</time>
      </trkpt>
      <trkpt lat="48.73025" lon="2.10051">
        <ele>109</ele>
        <time>2018-04-11T07:21:28Z</time>
      </trkpt>
      <trkpt lat="48.73013" lon="2.10052">
        <ele>108</ele>
        <time>2018-04-11T07:21:43Z</time>
      </trkpt>
      <trkpt lat="48.73004" lon="2.10035">
        <ele>107</ele>
        <time>2018-04-11T07:21:59Z</time>
      </trkpt>
      <trkpt lat="48.7299" lon="2.10026">
        <ele>101</ele>
        <time>2018-04-11T07:22:15Z</time>
      </trkpt>
      <trkpt lat="48.72976" lon="2.10018">
        <ele>101</ele>
        <time>2018-04-11T07:22:31Z</time>
      </trkpt>
      <trkpt lat="48.72963" lon="2.10005">
        <ele>101</ele>
        <time>2018-04-11T07:22:47Z</time>
      </trkpt>
      <trkpt lat="48.72947" lon="2.09995">
        <ele>99</ele>
        <time>2018-04-11T07:23:02Z</time>
      </trkpt>
      <trkpt lat="48.72932" lon="2.09983">
        <ele>99</ele>
        <time>2018-04-11T07:23:17Z</time>
      </trkpt>
      <trkpt lat="48.72917" lon="2.0997">
        <ele>99</ele>
        <time>2018-04-11T07:23:32Z</time>
      </trkpt>
      <trkpt lat="48.729" lon="2.09956">
        <ele>99</ele>
        <time>2018-04-11T07:23:47Z</time>
      </trkpt>
      <trkpt lat="48.72885" lon="2.09943">
        <ele>99</ele>
        <time>2018-04-11T07:24:03Z</time>
      </trkpt>
      <trkpt lat="48.72868" lon="2.09929">
        <ele>99</ele>
        <time>2018-04-11T07:24:19Z</time>
      </trkpt>
      <trkpt lat="48.72856" lon="2.09919">
        <ele>100</ele>
        <time>2018-04-11T07:24:34Z</time>
      </trkpt>
      <trkpt lat="48.72842" lon="2.09908">
        <ele>100</ele>
        <time>2018-04-11T07:24:50Z</time>
      </trkpt>
      <trkpt lat="48.72827" lon="2.09894">
        <ele>103</ele>
        <time>2018-04-11T07:25:05Z</time>
      </trkpt>
      <trkpt lat="48.72811" lon="2.0988">
        <ele>104</ele>
        <time>2018-04-11T07:25:21Z</time>
      </trkpt>
      <trkpt lat="48.72796" lon="2.09867">
        <ele>105</ele>
        <time>2018-04-11T07:25:37Z</time>
      </trkpt>
      <trkpt lat="48.72783" lon="2.09853">
        <ele>106</ele>
        <time>2018-04-11T07:25:53Z</time>
      </trkpt>
      <trkpt lat="48.72768" lon="2.0984">
        <ele>108</ele>
        <time>2018-04-11T07:26:09Z</time>
      </trkpt>
      <trkpt lat="48.72757" lon="2.09828">
        <ele>110</ele>
        <time>2018-04-11T07:26:25Z</time>
      </trkpt>
      <trkpt lat="48.72745" lon="2.09814">
        <ele>115</ele>
        <time>2018-04-11T07:26:41Z</time>
      </trkpt>
      <trkpt lat="48.72738" lon="2.09793">
        <ele>117</ele>
        <time>2018-04-11T07:26:57Z</time>
      </trkpt>
      <trkpt lat="48.72737" lon="2.09772">
        <ele>117</ele>
        <time>2018-04-11T07:27:12Z</time>
      </trkpt>
      <trkpt lat="48.72739" lon="2.09753">
        <ele>117</ele>
        <time>2018-04-11T07:27:28Z</time>
      </trkpt>
      <trkpt lat="48.72739" lon="2.09732">
        <ele>121</ele>
        <time>2018-04-11T07:27:43Z</time>
      </trkpt>
      <trkpt lat="48.72739" lon="2.09712">
        <ele>122</ele>
        <time>2018-04-11T07:27:59Z</time>
      </trkpt>
      <trkpt lat="48.72731" lon="2.09701">
        <ele>123</ele>
        <time>2018-04-11T07:28:15Z</time>
      </trkpt>
      <trkpt lat="48.72719" lon="2.09706">
        <ele>124</ele>
        <time>2018-04-11T07:28:31Z</time>
      </trkpt>
      <trkpt lat="48.72729" lon="2.09694">
        <ele>124</ele>
        <time>2018-04-11T07:28:47Z</time>
      </trkpt>
      <trkpt lat="48.7272" lon="2.09703">
        <ele>124</ele>
        <time>2018-04-11T07:29:03Z</time>
      </trkpt>
      <trkpt lat="48.72715" lon="2.09723">
        <ele>123</ele>
        <time>2018-04-11T07:29:18Z</time>
      </trkpt>
      <trkpt lat="48.72707" lon="2.09745">
        <ele>123</ele>
        <time>2018-04-11T07:29:34Z</time>
      </trkpt>
      <trkpt lat="48.72701" lon="2.09765">
        <ele>119</ele>
        <time>2018-04-11T07:29:50Z</time>
      </trkpt>
      <trkpt lat="48.72695" lon="2.09783">
        <ele>119</ele>
        <time>2018-04-11T07:30:05Z</time>
      </trkpt>
      <trkpt lat="48.72689" lon="2.09804">
        <ele>119</ele>
        <time>2018-04-11T07:30:20Z</time>
      </trkpt>
      <trkpt lat="48.72681" lon="2.09824">
        <ele>120</ele>
        <time>2018-04-11T07:30:35Z</time>
      </trkpt>
      <trkpt lat="48.72673" lon="2.09848">
        <ele>119</ele>
        <time>2018-04-11T07:30:51Z</time>
      </trkpt>
      <trkpt lat="48.72668" lon="2.0987">
        <ele>118</ele>
        <time>2018-04-11T07:31:07Z</time>
      </trkpt>
      <trkpt lat="48.72662" lon="2.0989">
        <ele>127</ele>
        <time>2018-04-11T07:31:22Z</time>
      </trkpt>
      <trkpt lat="48.72653" lon="2.09915">
        <ele>125</ele>
        <time>2018-04-11T07:31:39Z</time>
      </trkpt>
      <trkpt lat="48.72648" lon="2.09935">
        <ele>126</ele>
        <time>2018-04-11T07:31:54Z</time>
      </trkpt>
      <trkpt lat="48.72641" lon="2.09958">
        <ele>127</ele>
        <time>2018-04-11T07:32:10Z</time>
      </trkpt>
      <trkpt lat="48.72633" lon="2.09981">
        <ele>127</ele>
        <time>2018-04-11T07:32:26Z</time>
      </trkpt>
      <trkpt lat="48.72625" lon="2.10001">
        <ele>127</ele>
        <time>2018-04-11T07:32:42Z</time>
      </trkpt>
      <trkpt lat="48.72622" lon="2.10016">
        <ele>128</ele>
        <time>2018-04-11T07:32:57Z</time>
      </trkpt>
      <trkpt lat="48.72614" lon="2.10035">
        <ele>128</ele>
        <time>2018-04-11T07:33:13Z</time>
      </trkpt>
      <trkpt lat="48.72608" lon="2.10052">
        <ele>129</ele>
        <time>2018-04-11T07:33:30Z</time>
      </trkpt>
      <trkpt lat="48.72602" lon="2.10071">
        <ele>130</ele>
        <time>2018-04-11T07:33:46Z</time>
      </trkpt>
      <trkpt lat="48.72602" lon="2.10091">
        <ele>129</ele>
        <time>2018-04-11T07:34:01Z</time>
      </trkpt>
      <trkpt lat="48.72598" lon="2.10112">
        <ele>128</ele>
        <time>2018-04-11T07:34:16Z</time>
      </trkpt>
      <trkpt lat="48.72597" lon="2.10132">
        <ele>128</ele>
        <time>2018-04-11T07:34:31Z</time>
      </trkpt>
      <trkpt lat="48.72587" lon="2.1015">
        <ele>129</ele>
        <time>2018-04-11T07:34:47Z</time>
      </trkpt>
      <trkpt lat="48.72577" lon="2.10161">
        <ele>137</ele>
        <time>2018-04-11T07:35:04Z</time>
      </trkpt>
      <trkpt lat="48.7257" lon="2.1017">
        <ele>137</ele>
        <time>2018-04-11T07:35:21Z</time>
      </trkpt>
      <trkpt lat="48.72564" lon="2.10192">
        <ele>139</ele>
        <time>2018-04-11T07:35:38Z</time>
      </trkpt>
      <trkpt lat="48.72557" lon="2.10203">
        <ele>139</ele>
        <time>2018-04-11T07:35:53Z</time>
      </trkpt>
      <trkpt lat="48.7255" lon="2.10231">
        <ele>139</ele>
        <time>2018-04-11T07:36:10Z</time>
      </trkpt>
      <trkpt lat="48.72542" lon="2.10253">
        <ele>135</ele>
        <time>2018-04-11T07:36:25Z</time>
      </trkpt>
      <trkpt lat="48.72533" lon="2.10258">
        <ele>136</ele>
        <time>2018-04-11T07:36:42Z</time>
      </trkpt>
      <trkpt lat="48.72527" lon="2.1027">
        <ele>136</ele>
        <time>2018-04-11T07:36:58Z</time>
      </trkpt>
      <trkpt lat="48.7253" lon="2.10267">
        <ele>136</ele>
        <time>2018-04-11T07:37:13Z</time>
      </trkpt>
      <trkpt lat="48.72526" lon="2.10272">
        <ele>136</ele>
        <time>2018-04-11T07:37:29Z</time>
      </trkpt>
      <trkpt lat="48.72515" lon="2.10285">
        <ele>136</ele>
        <time>2018-04-11T07:37:45Z</time>
      </trkpt>
      <trkpt lat="48.72506" lon="2.10299">
        <ele>136</ele>
        <time>2018-04-11T07:38:01Z</time>
      </trkpt>
      <trkpt lat="48.72493" lon="2.10313">
        <ele>141</ele>
        <time>2018-04-11T07:38:17Z</time>
      </trkpt>
      <trkpt lat="48.72483" lon="2.10329">
        <ele>140</ele>
        <time>2018-04-11T07:38:32Z</time>
      </trkpt>
      <trkpt lat="48.72479" lon="2.10359">
        <ele>136</ele>
        <time>2018-04-11T07:38:47Z</time>
      </trkpt>
      <trkpt lat="48.72475" lon="2.10372">
        <ele>136</ele>
        <time>2018-04-11T07:39:03Z</time>
      </trkpt>
      <trkpt lat="48.72477" lon="2.1039">
        <ele>135</ele>
        <time>2018-04-11T07:39:19Z</time>
      </trkpt>
      <trkpt lat="48.7248" lon="2.10411">
        <ele>134</ele>
        <time>2018-04-11T07:39:35Z</time>
      </trkpt>
      <trkpt lat="48.72487" lon="2.10433">
        <ele>130</ele>
        <time>2018-04-11T07:39:50Z</time>
      </trkpt>
      <trkpt lat="48.72476" lon="2.10443">
        <ele>129</ele>
        <time>2018-04-11T07:40:06Z</time>
      </trkpt>
      <trkpt lat="48.72467" lon="2.10454">
        <ele>129</ele>
        <time>2018-04-11T07:40:22Z</time>
      </trkpt>
      <trkpt lat="48.7245" lon="2.10457">
        <ele>129</ele>
        <time>2018-04-11T07:40:39Z</time>
      </trkpt>
      <trkpt lat="48.7244" lon="2.10455">
        <ele>129</ele>
        <time>2018-04-11T07:40:55Z</time>
      </trkpt>
      <trkpt lat="48.72434" lon="2.10472">
        <ele>128</ele>
        <time>2018-04-11T07:41:10Z</time>
      </trkpt>
      <trkpt lat="48.72432" lon="2.10485">
        <ele>127</ele>
        <time>2018-04-11T07:41:25Z</time>
      </trkpt>
      <trkpt lat="48.72439" lon="2.10501">
        <ele>122</ele>
        <time>2018-04-11T07:41:41Z</time>
      </trkpt>
      <trkpt lat="48.72438" lon="2.10518">
        <ele>121</ele>
        <time>2018-04-11T07:41:56Z</time>
      </trkpt>
      <trkpt lat="48.72437" lon="2.10536">
        <ele>120</ele>
        <time>2018-04-11T07:42:12Z</time>
      </trkpt>
      <trkpt lat="48.72433" lon="2.10553">
        <ele>119</ele>
        <time>2018-04-11T07:42:27Z</time>
      </trkpt>
      <trkpt lat="48.72414" lon="2.10558">
        <ele>123</ele>
        <time>2018-04-11T07:42:42Z</time>
      </trkpt>
      <trkpt lat="48.72399" lon="2.10567">
        <ele>123</ele>
        <time>2018-04-11T07:42:58Z</time>
      </trkpt>
      <trkpt lat="48.72385" lon="2.10571">
        <ele>124</ele>
        <time>2018-04-11T07:43:13Z</time>
      </trkpt>
      <trkpt lat="48.72371" lon="2.10592">
        <ele>117</ele>
        <time>2018-04-11T07:43:29Z</time>
      </trkpt>
      <trkpt lat="48.72358" lon="2.10603">
        <ele>117</ele>
        <time>2018-04-11T07:43:45Z</time>
      </trkpt>
      <trkpt lat="48.72347" lon="2.10616">
        <ele>117</ele>
        <time>2018-04-11T07:44:01Z</time>
      </trkpt>
      <trkpt lat="48.72337" lon="2.10625">
        <ele>116</ele>
        <time>2018-04-11T07:44:16Z</time>
      </trkpt>
      <trkpt lat="48.72319" lon="2.10633">
        <ele>120</ele>
        <time>2018-04-11T07:44:32Z</time>
      </trkpt>
      <trkpt lat="48.72305" lon="2.1064">
        <ele>120</ele>
        <time>2018-04-11T07:44:47Z</time>
      </trkpt>
      <trkpt lat="48.72289" lon="2.10648">
        <ele>121</ele>
        <time>2018-04-11T07:45:03Z</time>
      </trkpt>
      <trkpt lat="48.72279" lon="2.10652">
        <ele>121</ele>
        <time>2018-04-11T07:45:19Z</time>
      </trkpt>
      <trkpt lat="48.72264" lon="2.10654">
        <ele>122</ele>
        <time>2018-04-11T07:45:35Z</time>
      </trkpt>
      <trkpt lat="48.72253" lon="2.10653">
        <ele>122</ele>
        <time>2018-04-11T07:45:50Z</time>
      </trkpt>
      <trkpt lat="48.72244" lon="2.10659">
        <ele>126</ele>
        <time>2018-04-11T07:46:05Z</time>
      </trkpt>
      <trkpt lat="48.72237" lon="2.10672">
        <ele>123</ele>
        <time>2018-04-11T07:46:20Z</time>
      </trkpt>
      <trkpt lat="48.72231" lon="2.10686">
        <ele>123</ele>
        <time>2018-04-11T07:46:35Z</time>
      </trkpt>
      <trkpt lat="48.72221" lon="2.10701">
        <ele>123</ele>
        <time>2018-04-11T07:46:50Z</time>
      </trkpt>
      <trkpt lat="48.72209" lon="2.10692">
        <ele>124</ele>
        <time>2018-04-11T07:47:08Z</time>
      </trkpt>
      <trkpt lat="48.72205" lon="2.10686">
        <ele>125</ele>
        <time>2018-04-11T07:47:23Z</time>
      </trkpt>
      <trkpt lat="48.72197" lon="2.10668">
        <ele>127</ele>
        <time>2018-04-11T07:47:40Z</time>
      </trkpt>
      <trkpt lat="48.72186" lon="2.10657">
        <ele>134</ele>
        <time>2018-04-11T07:47:58Z</time>
      </trkpt>
      <trkpt lat="48.72179" lon="2.10646">
        <ele>135</ele>
        <time>2018-04-11T07:48:15Z</time>
      </trkpt>
      <trkpt lat="48.72169" lon="2.10636">
        <ele>136</ele>
        <time>2018-04-11T07:48:31Z</time>
      </trkpt>
      <trkpt lat="48.72157" lon="2.10623">
        <ele>146</ele>
        <time>2018-04-11T07:48:46Z</time>
      </trkpt>
      <trkpt lat="48.72146" lon="2.10603">
        <ele>148</ele>
        <time>2018-04-11T07:49:01Z</time>
      </trkpt>
      <trkpt lat="48.72136" lon="2.10591">
        <ele>149</ele>
        <time>2018-04-11T07:49:18Z</time>
      </trkpt>
      <trkpt lat="48.72118" lon="2.10594">
        <ele>150</ele>
        <time>2018-04-11T07:49:36Z</time>
      </trkpt>
      <trkpt lat="48.72108" lon="2.10602">
        <ele>151</ele>
        <time>2018-04-11T07:49:52Z</time>
      </trkpt>
      <trkpt lat="48.72102" lon="2.10609">
        <ele>151</ele>
        <time>2018-04-11T07:50:07Z</time>
      </trkpt>
      <trkpt lat="48.72102" lon="2.10603">
        <ele>152</ele>
        <time>2018-04-11T07:50:23Z</time>
      </trkpt>
      <trkpt lat="48.72102" lon="2.10604">
        <ele>151</ele>
        <time>2018-04-11T07:50:38Z</time>
      </trkpt>
      <trkpt lat="48.72117" lon="2.10609">
        <ele>150</ele>
        <time>2018-04-11T07:50:54Z</time>
      </trkpt>
      <trkpt lat="48.72107" lon="2.10625">
        <ele>149</ele>
        <time>2018-04-11T07:51:09Z</time>
      </trkpt>
      <trkpt lat="48.72105" lon="2.10638">
        <ele>148</ele>
        <time>2018-04-11T07:51:24Z</time>
      </trkpt>
      <trkpt lat="48.72113" lon="2.10657">
        <ele>147</ele>
        <time>2018-04-11T07:51:40Z</time>
      </trkpt>
      <trkpt lat="48.72107" lon="2.10675">
        <ele>141</ele>
        <time>2018-04-11T07:51:56Z</time>
      </trkpt>
      <trkpt lat="48.72101" lon="2.10689">
        <ele>140</ele>
        <time>2018-04-11T07:52:11Z</time>
      </trkpt>
      <trkpt lat="48.72089" lon="2.10692">
        <ele>141</ele>
        <time>2018-04-11T07:52:27Z</time>
      </trkpt>
      <trkpt lat="48.72076" lon="2.10682">
        <ele>150</ele>
        <time>2018-04-11T07:52:42Z</time>
      </trkpt>
      <trkpt lat="48.72063" lon="2.10679">
        <ele>151</ele>
        <time>2018-04-11T07:52:58Z</time>
      </trkpt>
      <trkpt lat="48.72052" lon="2.10679">
        <ele>152</ele>
        <time>2018-04-11T07:53:14Z</time>
      </trkpt>
      <trkpt lat="48.72033" lon="2.1068">
        <ele>154</ele>
        <time>2018-04-11T07:53:30Z</time>
      </trkpt>
      <trkpt lat="48.72023" lon="2.10688">
        <ele>155</ele>
        <time>2018-04-11T07:53:46Z</time>
      </trkpt>
      <trkpt lat="48.72012" lon="2.10688">
        <ele>157</ele>
        <time>2018-04-11T07:54:01Z</time>
      </trkpt>
      <trkpt lat="48.72003" lon="2.10689">
        <ele>157</ele>
        <time>2018-04-11T07:54:17Z</time>
      </trkpt>
      <trkpt lat="48.7199" lon="2.10695">
        <ele>162</ele>
        <time>2018-04-11T07:54:33Z</time>
      </trkpt>
      <trkpt lat="48.71978" lon="2.10696">
        <ele>162</ele>
        <time>2018-04-11T07:54:48Z</time>
      </trkpt>
      <trkpt lat="48.71962" lon="2.10702">
        <ele>162</ele>
        <time>2018-04-11T07:55:04Z</time>
      </trkpt>
      <trkpt lat="48.71947" lon="2.10712">
        <ele>162</ele>
        <time>2018-04-11T07:55:19Z</time>
      </trkpt>
      <trkpt lat="48.7193" lon="2.10723">
        <ele>162</ele>
        <time>2018-04-11T07:55:34Z</time>
      </trkpt>
      <trkpt lat="48.71914" lon="2.10727">
        <ele>162</ele>
        <time>2018-04-11T07:55:49Z</time>
      </trkpt>
      <trkpt lat="48.71898" lon="2.10727">
        <ele>162</ele>
        <time>2018-04-11T07:56:05Z</time>
      </trkpt>
      <trkpt lat="48.71887" lon="2.10716">
        <ele>162</ele>
        <time>2018-04-11T07:56:23Z</time>
      </trkpt>
      <trkpt lat="48.7189" lon="2.1072">
        <ele>162</ele>
        <time>2018-04-11T07:56:41Z</time>
      </trkpt>
      <trkpt lat="48.7189" lon="2.1072">
        <ele>162</ele>
        <time>2018-04-11T07:56:56Z</time>
      </trkpt>
      <trkpt lat="48.71879" lon="2.1072">
        <ele>162</ele>
        <time>2018-04-11T07:57:11Z</time>
      </trkpt>
      <trkpt lat="48.71866" lon="2.10718">
        <ele>161</ele>
        <time>2018-04-11T07:57:26Z</time>
      </trkpt>
      <trkpt lat="48.71851" lon="2.10719">
        <ele>161</ele>
        <time>2018-04-11T07:57:41Z</time>
      </trkpt>
      <trkpt lat="48.71837" lon="2.10723">
        <ele>161</ele>
        <time>2018-04-11T07:57:57Z</time>
      </trkpt>
      <trkpt lat="48.71823" lon="2.10728">
        <ele>160</ele>
        <time>2018-04-11T07:58:13Z</time>
      </trkpt>
      <trkpt lat="48.71809" lon="2.10734">
        <ele>160</ele>
        <time>2018-04-11T07:58:28Z</time>
      </trkpt>
      <trkpt lat="48.71796" lon="2.10739">
        <ele>160</ele>
        <time>2018-04-11T07:58:43Z</time>
      </trkpt>
      <trkpt lat="48.71781" lon="2.10752">
        <ele>158</ele>
        <time>2018-04-11T07:59:00Z</time>
      </trkpt>
      <trkpt lat="48.71775" lon="2.10762">
        <ele>158</ele>
        <time>2018-04-11T07:59:15Z</time>
      </trkpt>
      <trkpt lat="48.71773" lon="2.10752">
        <ele>158</ele>
        <time>2018-04-11T07:59:35Z</time>
      </trkpt>
      <trkpt lat="48.71779" lon="2.10752">
        <ele>158</ele>
        <time>2018-04-11T07:59:53Z</time>
      </trkpt>
      <trkpt lat="48.71764" lon="2.10773">
        <ele>158</ele>
        <time>2018-04-11T08:00:09Z</time>
      </trkpt>
      <trkpt lat="48.71775" lon="2.10755">
        <ele>158</ele>
        <time>2018-04-11T08:00:27Z</time>
      </trkpt>
      <trkpt lat="48.71767" lon="2.10748">
        <ele>159</ele>
        <time>2018-04-11T08:00:43Z</time>
      </trkpt>
      <trkpt lat="48.71764" lon="2.10761">
        <ele>158</ele>
        <time>2018-04-11T08:00:58Z</time>
      </trkpt>
      <trkpt lat="48.71756" lon="2.10772">
        <ele>158</ele>
        <time>2018-04-11T08:01:13Z</time>
      </trkpt>
      <trkpt lat="48.71746" lon="2.10795">
        <ele>158</ele>
        <time>2018-04-11T08:01:29Z</time>
      </trkpt>
      <trkpt lat="48.71735" lon="2.10805">
        <ele>158</ele>
        <time>2018-04-11T08:01:44Z</time>
      </trkpt>
      <trkpt lat="48.71722" lon="2.10824">
        <ele>158</ele>
        <time>2018-04-11T08:01:59Z</time>
      </trkpt>
      <trkpt lat="48.71712" lon="2.10842">
        <ele>157</ele>
        <time>2018-04-11T08:02:15Z</time>
      </trkpt>
      <trkpt lat="48.71698" lon="2.1085">
        <ele>157</ele>
        <time>2018-04-11T08:02:30Z</time>
      </trkpt>
      <trkpt lat="48.71682" lon="2.10851">
        <ele>158</ele>
        <time>2018-04-11T08:02:45Z</time>
      </trkpt>
      <trkpt lat="48.71668" lon="2.10867">
        <ele>158</ele>
        <time>2018-04-11T08:03:01Z</time>
      </trkpt>
      <trkpt lat="48.71658" lon="2.10877">
        <ele>158</ele>
        <time>2018-04-11T08:03:18Z</time>
      </trkpt>
      <trkpt lat="48.71645" lon="2.10884">
        <ele>158</ele>
        <time>2018-04-11T08:03:33Z</time>
      </trkpt>
      <trkpt lat="48.71632" lon="2.10878">
        <ele>158</ele>
        <time>2018-04-11T08:03:49Z</time>
      </trkpt>
      <trkpt lat="48.71621" lon="2.10885">
        <ele>158</ele>
        <time>2018-04-11T08:04:04Z</time>
      </trkpt>
      <trkpt lat="48.7161" lon="2.10898">
        <ele>157</ele>
        <time>2018-04-11T08:04:20Z</time>
      </trkpt>
      <trkpt lat="48.71598" lon="2.10901">
        <ele>157</ele>
        <time>2018-04-11T08:04:36Z</time>
      </trkpt>
      <trkpt lat="48.71587" lon="2.10909">
        <ele>157</ele>
        <time>2018-04-11T08:04:51Z</time>
      </trkpt>
      <trkpt lat="48.71576" lon="2.10924">
        <ele>154</ele>
        <time>2018-04-11T08:05:07Z</time>
      </trkpt>
      <trkpt lat="48.71568" lon="2.10942">
        <ele>152</ele>
        <time>2018-04-11T08:05:23Z</time>
      </trkpt>
      <trkpt lat="48.71563" lon="2.1095">
        <ele>152</ele>
        <time>2018-04-11T08:05:38Z</time>
      </trkpt>
      <trkpt lat="48.71558" lon="2.10947">
        <ele>152</ele>
        <time>2018-04-11T08:05:54Z</time>
      </trkpt>
      <trkpt lat="48.71564" lon="2.10968">
        <ele>152</ele>
        <time>2018-04-11T08:06:11Z</time>
      </trkpt>
      <trkpt lat="48.7156" lon="2.10986">
        <ele>153</ele>
        <time>2018-04-11T08:06:26Z</time>
      </trkpt>
      <trkpt lat="48.71551" lon="2.10997">
        <ele>152</ele>
        <time>2018-04-11T08:06:41Z</time>
      </trkpt>
      <trkpt lat="48.71544" lon="2.11009">
        <ele>152</ele>
        <time>2018-04-11T08:06:58Z</time>
      </trkpt>
      <trkpt lat="48.71535" lon="2.11011">
        <ele>151</ele>
        <time>2018-04-11T08:07:13Z</time>
      </trkpt>
      <trkpt lat="48.71521" lon="2.11017">
        <ele>149</ele>
        <time>2018-04-11T08:07:28Z</time>
      </trkpt>
      <trkpt lat="48.71515" lon="2.11029">
        <ele>149</ele>
        <time>2018-04-11T08:07:43Z</time>
      </trkpt>
      <trkpt lat="48.71507" lon="2.1104">
        <ele>149</ele>
        <time>2018-04-11T08:07:59Z</time>
      </trkpt>
      <trkpt lat="48.71488" lon="2.11042">
        <ele>143</ele>
        <time>2018-04-11T08:08:15Z</time>
      </trkpt>
      <trkpt lat="48.71479" lon="2.11037">
        <ele>143</ele>
        <time>2018-04-11T08:08:30Z</time>
      </trkpt>
      <trkpt lat="48.71458" lon="2.11032">
        <ele>143</ele>
        <time>2018-04-11T08:08:45Z</time>
      </trkpt>
      <trkpt lat="48.71449" lon="2.11025">
        <ele>143</ele>
        <time>2018-04-11T08:09:00Z</time>
      </trkpt>
      <trkpt lat="48.71442" lon="2.11018">
        <ele>143</ele>
        <time>2018-04-11T08:09:16Z</time>
      </trkpt>
      <trkpt lat="48.71432" lon="2.11008">
        <ele>144</ele>
        <time>2018-04-11T08:09:31Z</time>
      </trkpt>
      <trkpt lat="48.71419" lon="2.11006">
        <ele>145</ele>
        <time>2018-04-11T08:09:48Z</time>
      </trkpt>
      <trkpt lat="48.71397" lon="2.10989">
        <ele>151</ele>
        <time>2018-04-11T08:10:08Z</time>
      </trkpt>
      <trkpt lat="48.71389" lon="2.10976">
        <ele>153</ele>
        <time>2018-04-11T08:10:24Z</time>
      </trkpt>
      <trkpt lat="48.7138" lon="2.10964">
        <ele>154</ele>
        <time>2018-04-11T08:10:40Z</time>
      </trkpt>
      <trkpt lat="48.71369" lon="2.10955">
        <ele>156</ele>
        <time>2018-04-11T08:10:56Z</time>
      </trkpt>
      <trkpt lat="48.71357" lon="2.10943">
        <ele>157</ele>
        <time>2018-04-11T08:11:12Z</time>
      </trkpt>
      <trkpt lat="48.71349" lon="2.10931">
        <ele>158</ele>
        <time>2018-04-11T08:11:28Z</time>
      </trkpt>
      <trkpt lat="48.71333" lon="2.10919">
        <ele>163</ele>
        <time>2018-04-11T08:11:43Z</time>
      </trkpt>
      <trkpt lat="48.71319" lon="2.10909">
        <ele>163</ele>
        <time>2018-04-11T08:11:58Z</time>
      </trkpt>
      <trkpt lat="48.71303" lon="2.10895">
        <ele>163</ele>
        <time>2018-04-11T08:12:16Z</time>
      </trkpt>
      <trkpt lat="48.71295" lon="2.1088">
        <ele>163</ele>
        <time>2018-04-11T08:12:31Z</time>
      </trkpt>
      <trkpt lat="48.71275" lon="2.10869">
        <ele>163</ele>
        <time>2018-04-11T08:12:46Z</time>
      </trkpt>
      <trkpt lat="48.71262" lon="2.10855">
        <ele>163</ele>
        <time>2018-04-11T08:13:02Z</time>
      </trkpt>
      <trkpt lat="48.71248" lon="2.10841">
        <ele>164</ele>
        <time>2018-04-11T08:13:18Z</time>
      </trkpt>
      <trkpt lat="48.71241" lon="2.10833">
        <ele>164</ele>
        <time>2018-04-11T08:13:33Z</time>
      </trkpt>
      <trkpt lat="48.71212" lon="2.10817">
        <ele>163</ele>
        <time>2018-04-11T08:13:49Z</time>
      </trkpt>
      <trkpt lat="48.71192" lon="2.10802">
        <ele>163</ele>
        <time>2018-04-11T08:14:05Z</time>
      </trkpt>
      <trkpt lat="48.71176" lon="2.10789">
        <ele>163</ele>
        <time>2018-04-11T08:14:20Z</time>
      </trkpt>
      <trkpt lat="48.71165" lon="2.10777">
        <ele>163</ele>
        <time>2018-04-11T08:14:35Z</time>
      </trkpt>
      <trkpt lat="48.71141" lon="2.10763">
        <ele>163</ele>
        <time>2018-04-11T08:14:50Z</time>
      </trkpt>
      <trkpt lat="48.71132" lon="2.10744">
        <ele>162</ele>
        <time>2018-04-11T08:15:05Z</time>
      </trkpt>
      <trkpt lat="48.71115" lon="2.10708">
        <ele>162</ele>
        <time>2018-04-11T08:15:20Z</time>
      </trkpt>
      <trkpt lat="48.71114" lon="2.10685">
        <ele>163</ele>
        <time>2018-04-11T08:15:35Z</time>
      </trkpt>
      <trkpt lat="48.71112" lon="2.10663">
        <ele>163</ele>
        <time>2018-04-11T08:15:50Z</time>
      </trkpt>
      <trkpt lat="48.71119" lon="2.10657">
        <ele>162</ele>
        <time>2018-04-11T08:16:07Z</time>
      </trkpt>
      <trkpt lat="48.71132" lon="2.10657">
        <ele>161</ele>
        <time>2018-04-11T08:16:23Z</time>
      </trkpt>
      <trkpt lat="48.71129" lon="2.1064">
        <ele>162</ele>
        <time>2018-04-11T08:16:39Z</time>
      </trkpt>
      <trkpt lat="48.71129" lon="2.10616">
        <ele>161</ele>
        <time>2018-04-11T08:16:56Z</time>
      </trkpt>
      <trkpt lat="48.71132" lon="2.10597">
        <ele>161</ele>
        <time>2018-04-11T08:17:11Z</time>
      </trkpt>
      <trkpt lat="48.71138" lon="2.10575">
        <ele>160</ele>
        <time>2018-04-11T08:17:26Z</time>
      </trkpt>
      <trkpt lat="48.71145" lon="2.10549">
        <ele>159</ele>
        <time>2018-04-11T08:17:41Z</time>
      </trkpt>
      <trkpt lat="48.71155" lon="2.10519">
        <ele>158</ele>
        <time>2018-04-11T08:17:58Z</time>
      </trkpt>
      <trkpt lat="48.71157" lon="2.10498">
        <ele>156</ele>
        <time>2018-04-11T08:18:13Z</time>
      </trkpt>
      <trkpt lat="48.71166" lon="2.10475">
        <ele>157</ele>
        <time>2018-04-11T08:18:28Z</time>
      </trkpt>
      <trkpt lat="48.71171" lon="2.10458">
        <ele>155</ele>
        <time>2018-04-11T08:18:43Z</time>
      </trkpt>
      <trkpt lat="48.71175" lon="2.10432">
        <ele>155</ele>
        <time>2018-04-11T08:18:58Z</time>
      </trkpt>
      <trkpt lat="48.71181" lon="2.10404">
        <ele>156</ele>
        <time>2018-04-11T08:19:13Z</time>
      </trkpt>
      <trkpt lat="48.71186" lon="2.10381">
        <ele>156</ele>
        <time>2018-04-11T08:19:28Z</time>
      </trkpt>
      <trkpt lat="48.71192" lon="2.10358">
        <ele>156</ele>
        <time>2018-04-11T08:19:43Z</time>
      </trkpt>
      <trkpt lat="48.71198" lon="2.10333">
        <ele>156</ele>
        <time>2018-04-11T08:19:59Z</time>
      </trkpt>
      <trkpt lat="48.712" lon="2.10308">
        <ele>156</ele>
        <time>2018-04-11T08:20:14Z</time>
      </trkpt>
      <trkpt lat="48.71199" lon="2.10281">
        <ele>156</ele>
        <time>2018-04-11T08:20:29Z</time>
      </trkpt>
      <trkpt lat="48.71197" lon="2.10253">
        <ele>156</ele>
        <time>2018-04-11T08:20:45Z</time>
      </trkpt>
      <trkpt lat="48.71188" lon="2.10226">
        <ele>156</ele>
        <time>2018-04-11T08:21:01Z</time>
      </trkpt>
      <trkpt lat="48.71172" lon="2.10208">
        <ele>156</ele>
        <time>2018-04-11T08:21:16Z</time>
      </trkpt>
      <trkpt lat="48.71158" lon="2.10189">
        <ele>156</ele>
        <time>2018-04-11T08:21:31Z</time>
      </trkpt>
      <trkpt lat="48.71162" lon="2.10163">
        <ele>156</ele>
        <time>2018-04-11T08:21:47Z</time>
      </trkpt>
      <trkpt lat="48.71183" lon="2.10166">
        <ele>156</ele>
        <time>2018-04-11T08:22:03Z</time>
      </trkpt>
      <trkpt lat="48.71195" lon="2.10164">
        <ele>155</ele>
        <time>2018-04-11T08:22:18Z</time>
      </trkpt>
      <trkpt lat="48.71212" lon="2.10158">
        <ele>155</ele>
        <time>2018-04-11T08:22:34Z</time>
      </trkpt>
      <trkpt lat="48.71228" lon="2.10153">
        <ele>155</ele>
        <time>2018-04-11T08:22:49Z</time>
      </trkpt>
      <trkpt lat="48.71242" lon="2.10148">
        <ele>155</ele>
        <time>2018-04-11T08:23:05Z</time>
      </trkpt>
      <trkpt lat="48.71258" lon="2.10145">
        <ele>155</ele>
        <time>2018-04-11T08:23:20Z</time>
      </trkpt>
      <trkpt lat="48.71275" lon="2.10139">
        <ele>155</ele>
        <time>2018-04-11T08:23:35Z</time>
      </trkpt>
      <trkpt lat="48.71292" lon="2.10134">
        <ele>154</ele>
        <time>2018-04-11T08:23:50Z</time>
      </trkpt>
      <trkpt lat="48.71308" lon="2.10129">
        <ele>154</ele>
        <time>2018-04-11T08:24:06Z</time>
      </trkpt>
      <trkpt lat="48.71323" lon="2.10124">
        <ele>154</ele>
        <time>2018-04-11T08:24:21Z</time>
      </trkpt>
      <trkpt lat="48.71341" lon="2.10119">
        <ele>154</ele>
        <time>2018-04-11T08:24:37Z</time>
      </trkpt>
      <trkpt lat="48.71356" lon="2.10114">
        <ele>154</ele>
        <time>2018-04-11T08:24:52Z</time>
      </trkpt>
      <trkpt lat="48.7137" lon="2.1011">
        <ele>154</ele>
        <time>2018-04-11T08:25:07Z</time>
      </trkpt>
      <trkpt lat="48.71386" lon="2.10104">
        <ele>153</ele>
        <time>2018-04-11T08:25:22Z</time>
      </trkpt>
      <trkpt lat="48.71402" lon="2.101">
        <ele>153</ele>
        <time>2018-04-11T08:25:38Z</time>
      </trkpt>
      <trkpt lat="48.71418" lon="2.10095">
        <ele>153</ele>
        <time>2018-04-11T08:25:53Z</time>
      </trkpt>
      <trkpt lat="48.71435" lon="2.1009">
        <ele>153</ele>
        <time>2018-04-11T08:26:09Z</time>
      </trkpt>
      <trkpt lat="48.71452" lon="2.10085">
        <ele>153</ele>
        <time>2018-04-11T08:26:25Z</time>
      </trkpt>
      <trkpt lat="48.71469" lon="2.10079">
        <ele>153</ele>
        <time>2018-04-11T08:26:40Z</time>
      </trkpt>
      <trkpt lat="48.71482" lon="2.10073">
        <ele>153</ele>
        <time>2018-04-11T08:26:56Z</time>
      </trkpt>
      <trkpt lat="48.71496" lon="2.10068">
        <ele>153</ele>
        <time>2018-04-11T08:27:12Z</time>
      </trkpt>
      <trkpt lat="48.71508" lon="2.10061">
        <ele>153</ele>
        <time>2018-04-11T08:27:28Z</time>
      </trkpt>
      <trkpt lat="48.71522" lon="2.10058">
        <ele>154</ele>
        <time>2018-04-11T08:27:45Z</time>
      </trkpt>
      <trkpt lat="48.71532" lon="2.10065">
        <ele>154</ele>
        <time>2018-04-11T08:28:01Z</time>
      </trkpt>
      <trkpt lat="48.71541" lon="2.1005">
        <ele>154</ele>
        <time>2018-04-11T08:28:17Z</time>
      </trkpt>
      <trkpt lat="48.7155" lon="2.10027">
        <ele>154</ele>
        <time>2018-04-11T08:28:33Z</time>
      </trkpt>
      <trkpt lat="48.71558" lon="2.10005">
        <ele>154</ele>
        <time>2018-04-11T08:28:48Z</time>
      </trkpt>
      <trkpt lat="48.71566" lon="2.09988">
        <ele>154</ele>
        <time>2018-04-11T08:29:03Z</time>
      </trkpt>
      <trkpt lat="48.71573" lon="2.09967">
        <ele>154</ele>
        <time>2018-04-11T08:29:19Z</time>
      </trkpt>
      <trkpt lat="48.71583" lon="2.09953">
        <ele>154</ele>
        <time>2018-04-11T08:29:34Z</time>
      </trkpt>
      <trkpt lat="48.71591" lon="2.09933">
        <ele>154</ele>
        <time>2018-04-11T08:29:49Z</time>
      </trkpt>
      <trkpt lat="48.71603" lon="2.09913">
        <ele>154</ele>
        <time>2018-04-11T08:30:05Z</time>
      </trkpt>
      <trkpt lat="48.71613" lon="2.09902">
        <ele>154</ele>
        <time>2018-04-11T08:30:21Z</time>
      </trkpt>
      <trkpt lat="48.71621" lon="2.09882">
        <ele>154</ele>
        <time>2018-04-11T08:30:36Z</time>
      </trkpt>
      <trkpt lat="48.71624" lon="2.09857">
        <ele>154</ele>
        <time>2018-04-11T08:30:52Z</time>
      </trkpt>
      <trkpt lat="48.71631" lon="2.09835">
        <ele>155</ele>
        <time>2018-04-11T08:31:08Z</time>
      </trkpt>
      <trkpt lat="48.71641" lon="2.09813">
        <ele>154</ele>
        <time>2018-04-11T08:31:24Z</time>
      </trkpt>
      <trkpt lat="48.71653" lon="2.09801">
        <ele>154</ele>
        <time>2018-04-11T08:31:40Z</time>
      </trkpt>
      <trkpt lat="48.71663" lon="2.09799">
        <ele>154</ele>
        <time>2018-04-11T08:31:56Z</time>
      </trkpt>
      <trkpt lat="48.71673" lon="2.09779">
        <ele>157</ele>
        <time>2018-04-11T08:32:12Z</time>
      </trkpt>
      <trkpt lat="48.71683" lon="2.09759">
        <ele>156</ele>
        <time>2018-04-11T08:32:28Z</time>
      </trkpt>
      <trkpt lat="48.71695" lon="2.0974">
        <ele>157</ele>
        <time>2018-04-11T08:32:44Z</time>
      </trkpt>
      <trkpt lat="48.71705" lon="2.0972">
        <ele>157</ele>
        <time>2018-04-11T08:33:00Z</time>
      </trkpt>
      <trkpt lat="48.71716" lon="2.09702">
        <ele>157</ele>
        <time>2018-04-11T08:33:16Z</time>
      </trkpt>
      <trkpt lat="48.71727" lon="2.09679">
        <ele>158</ele>
        <time>2018-04-11T08:33:32Z</time>
      </trkpt>
      <trkpt lat="48.71736" lon="2.09654">
        <ele>158</ele>
        <time>2018-04-11T08:33:49Z</time>
      </trkpt>
      <trkpt lat="48.71747" lon="2.09632">
        <ele>157</ele>
        <time>2018-04-11T08:34:06Z</time>
      </trkpt>
      <trkpt lat="48.71757" lon="2.09609">
        <ele>158</ele>
        <time>2018-04-11T08:34:22Z</time>
      </trkpt>
      <trkpt lat="48.71767" lon="2.09585">
        <ele>158</ele>
        <time>2018-04-11T08:34:38Z</time>
      </trkpt>
      <trkpt lat="48.71776" lon="2.09561">
        <ele>157</ele>
        <time>2018-04-11T08:34:54Z</time>
      </trkpt>
      <trkpt lat="48.71785" lon="2.09541">
        <ele>156</ele>
        <time>2018-04-11T08:35:09Z</time>
      </trkpt>
      <trkpt lat="48.71796" lon="2.0952">
        <ele>156</ele>
        <time>2018-04-11T08:35:25Z</time>
      </trkpt>
      <trkpt lat="48.71803" lon="2.095">
        <ele>156</ele>
        <time>2018-04-11T08:35:40Z</time>
      </trkpt>
      <trkpt lat="48.71811" lon="2.09479">
        <ele>155</ele>
        <time>2018-04-11T08:35:55Z</time>
      </trkpt>
      <trkpt lat="48.71819" lon="2.09453">
        <ele>155</ele>
        <time>2018-04-11T08:36:12Z</time>
      </trkpt>
      <trkpt lat="48.71828" lon="2.09429">
        <ele>156</ele>
        <time>2018-04-11T08:36:28Z</time>
      </trkpt>
      <trkpt lat="48.71837" lon="2.09408">
        <ele>157</ele>
        <time>2018-04-11T08:36:44Z</time>
      </trkpt>
      <trkpt lat="48.71845" lon="2.09382">
        <ele>158</ele>
        <time>2018-04-11T08:37:00Z</time>
      </trkpt>
      <trkpt lat="48.71853" lon="2.09358">
        <ele>158</ele>
        <time>2018-04-11T08:37:16Z</time>
      </trkpt>
      <trkpt lat="48.71864" lon="2.09336">
        <ele>158</ele>
        <time>2018-04-11T08:37:32Z</time>
      </trkpt>
      <trkpt lat="48.71871" lon="2.09313">
        <ele>158</ele>
        <time>2018-04-11T08:37:47Z</time>
      </trkpt>
      <trkpt lat="48.71879" lon="2.09287">
        <ele>158</ele>
        <time>2018-04-11T08:38:03Z</time>
      </trkpt>
      <trkpt lat="48.71888" lon="2.09264">
        <ele>158</ele>
        <time>2018-04-11T08:38:19Z</time>
      </trkpt>
      <trkpt lat="48.71898" lon="2.09241">
        <ele>158</ele>
        <time>2018-04-11T08:38:35Z</time>
      </trkpt>
      <trkpt lat="48.71906" lon="2.0922">
        <ele>158</ele>
        <time>2018-04-11T08:38:50Z</time>
      </trkpt>
      <trkpt lat="48.7192" lon="2.0921">
        <ele>159</ele>
        <time>2018-04-11T08:39:05Z</time>
      </trkpt>
      <trkpt lat="48.7193" lon="2.0919">
        <ele>159</ele>
        <time>2018-04-11T08:39:20Z</time>
      </trkpt>
      <trkpt lat="48.7194" lon="2.0917">
        <ele>159</ele>
        <time>2018-04-11T08:39:35Z</time>
      </trkpt>
      <trkpt lat="48.7195" lon="2.09148">
        <ele>159</ele>
        <time>2018-04-11T08:39:51Z</time>
      </trkpt>
      <trkpt lat="48.7196" lon="2.09127">
        <ele>159</ele>
        <time>2018-04-11T08:40:07Z</time>
      </trkpt>
      <trkpt lat="48.71973" lon="2.09107">
        <ele>159</ele>
        <time>2018-04-11T08:40:23Z</time>
      </trkpt>
      <trkpt lat="48.71987" lon="2.09093">
        <ele>159</ele>
        <time>2018-04-11T08:40:38Z</time>
      </trkpt>
      <trkpt lat="48.72002" lon="2.09084">
        <ele>159</ele>
        <time>2018-04-11T08:40:54Z</time>
      </trkpt>
      <trkpt lat="48.72011" lon="2.09075">
        <ele>160</ele>
        <time>2018-04-11T08:41:09Z</time>
      </trkpt>
    </trkseg>
  </trk>
</gpx>